createdAt,value
2022-10-07T00:00:06.237Z,6.83
2022-10-07T00:01:06.312Z,6.89
2022-10-07T00:02:06.278Z,6.90
2022-10-07T00:03:06.206Z,6.91
2022-10-07T00:04:06.186Z,6.87
2022-10-07T00:05:06.207Z,6.87
2022-10-07T00:06:06.171Z,6.86
2022-10-07T00:07:06.161Z,6.86
2022-10-07T00:08:06.145Z,6.86
2022-10-07T00:09:06.128Z,6.84
2022-10-07T00:10:06.128Z,6.80
2022-10-07T00:11:06.131Z,6.77
2022-10-07T00:12:06.108Z,6.73
2022-10-07T00:13:06.092Z,6.72
2022-10-07T00:14:06.077Z,6.72
2022-10-07T00:15:06.077Z,6.72
2022-10-07T00:16:06.162Z,6.72
2022-10-07T00:17:06.049Z,6.72
2022-10-07T00:18:06.048Z,6.72
2022-10-07T00:19:06.027Z,6.72
2022-10-07T00:20:06.007Z,6.76
2022-10-07T00:21:06.014Z,6.73
2022-10-07T00:22:06.018Z,6.76
2022-10-07T00:23:05.968Z,6.72
2022-10-07T00:24:05.974Z,6.72
2022-10-07T00:25:05.964Z,6.69
2022-10-07T00:26:05.937Z,6.69
2022-10-07T00:27:05.933Z,6.65
2022-10-07T00:28:06.043Z,6.62
2022-10-07T00:29:05.903Z,6.62
2022-10-07T00:30:05.892Z,6.62
2022-10-07T00:31:05.972Z,6.61
2022-10-07T00:32:05.880Z,6.63
2022-10-07T00:33:05.860Z,6.66
2022-10-07T00:34:05.867Z,6.66
2022-10-07T00:35:05.846Z,6.65
2022-10-07T00:36:05.841Z,6.65
2022-10-07T00:37:05.822Z,6.65
2022-10-07T00:38:05.811Z,6.61
2022-10-07T00:39:05.792Z,6.59
2022-10-07T00:40:05.851Z,6.59
2022-10-07T00:41:05.772Z,6.58
2022-10-07T00:42:05.772Z,6.56
2022-10-07T00:43:05.754Z,6.50
2022-10-07T00:44:05.743Z,6.50
2022-10-07T00:45:05.733Z,6.48
2022-10-07T00:46:05.828Z,6.47
2022-10-07T00:47:05.704Z,6.41
2022-10-07T00:48:05.695Z,6.40
2022-10-07T00:49:05.682Z,6.36
2022-10-07T00:50:05.677Z,6.36
2022-10-07T00:51:05.704Z,6.33
2022-10-07T00:52:05.654Z,6.33
2022-10-07T00:53:05.633Z,6.33
2022-10-07T00:54:05.633Z,6.35
2022-10-07T00:55:05.615Z,6.35
2022-10-07T00:56:05.613Z,6.40
2022-10-07T00:57:05.905Z,6.43
2022-10-07T00:58:05.583Z,6.44
2022-10-07T00:59:05.630Z,6.43
2022-10-07T01:00:05.563Z,6.41
2022-10-07T01:01:05.580Z,6.35
2022-10-07T01:02:05.578Z,6.30
2022-10-07T01:03:05.604Z,6.29
2022-10-07T01:04:05.514Z,6.33
2022-10-07T01:05:05.505Z,6.33
2022-10-07T01:06:05.492Z,6.32
2022-10-07T01:07:05.496Z,6.29
2022-10-07T01:08:05.474Z,6.25
2022-10-07T01:09:05.478Z,6.21
2022-10-07T01:10:05.448Z,6.25
2022-10-07T01:11:05.426Z,6.21
2022-10-07T01:12:05.427Z,6.21
2022-10-07T01:13:05.449Z,6.18
2022-10-07T01:14:05.540Z,6.21
2022-10-07T01:15:05.387Z,6.25
2022-10-07T01:16:05.380Z,6.28
2022-10-07T01:17:05.406Z,6.28
2022-10-07T01:18:05.416Z,6.29
2022-10-07T01:19:05.336Z,6.28
2022-10-07T01:20:05.568Z,6.25
2022-10-07T01:21:05.324Z,6.22
2022-10-07T01:22:05.316Z,6.19
2022-10-07T01:23:05.297Z,6.14
2022-10-07T01:24:05.280Z,6.14
2022-10-07T01:25:05.331Z,6.10
2022-10-07T01:26:05.600Z,6.09
2022-10-07T01:27:05.248Z,6.07
2022-10-07T01:28:05.294Z,6.07
2022-10-07T01:29:05.241Z,6.06
2022-10-07T01:30:05.218Z,6.04
2022-10-07T01:31:05.333Z,6.03
2022-10-07T01:32:05.200Z,6.00
2022-10-07T01:33:05.177Z,6.00
2022-10-07T01:34:05.180Z,6.01
2022-10-07T01:35:05.170Z,5.98
2022-10-07T01:36:05.146Z,5.98
2022-10-07T01:37:05.181Z,5.95
2022-10-07T01:38:05.129Z,5.95
2022-10-07T01:39:05.113Z,5.92
2022-10-07T01:40:05.108Z,5.88
2022-10-07T01:41:05.091Z,5.86
2022-10-07T01:42:05.082Z,5.85
2022-10-07T01:43:05.106Z,5.81
2022-10-07T01:44:05.066Z,5.78
2022-10-07T01:45:05.042Z,5.77
2022-10-07T01:46:05.113Z,5.75
2022-10-07T01:47:05.023Z,5.74
2022-10-07T01:48:05.013Z,5.71
2022-10-07T01:49:05.030Z,5.71
2022-10-07T01:50:04.993Z,5.70
2022-10-07T01:51:04.972Z,5.70
2022-10-07T01:52:04.970Z,5.66
2022-10-07T01:53:04.951Z,5.63
2022-10-07T01:54:04.980Z,5.63
2022-10-07T01:55:04.990Z,5.57
2022-10-07T01:56:06.180Z,5.57
2022-10-07T01:57:04.910Z,5.57
2022-10-07T01:58:04.893Z,5.55
2022-10-07T01:59:04.889Z,5.53
2022-10-07T02:00:04.902Z,5.56
2022-10-07T02:01:04.893Z,5.56
2022-10-07T02:02:04.858Z,5.56
2022-10-07T02:03:04.841Z,5.57
2022-10-07T02:04:04.952Z,5.57
2022-10-07T02:05:04.812Z,5.57
2022-10-07T02:06:04.824Z,5.57
2022-10-07T02:07:04.806Z,5.55
2022-10-07T02:08:04.781Z,5.53
2022-10-07T02:09:04.770Z,5.52
2022-10-07T02:10:04.812Z,5.49
2022-10-07T02:11:04.753Z,5.49
2022-10-07T02:12:04.764Z,5.49
2022-10-07T02:13:04.728Z,5.48
2022-10-07T02:14:04.710Z,5.48
2022-10-07T02:15:04.715Z,5.46
2022-10-07T02:16:04.734Z,5.45
2022-10-07T02:17:04.682Z,5.46
2022-10-07T02:18:04.697Z,5.41
2022-10-07T02:19:04.665Z,5.38
2022-10-07T02:20:04.651Z,5.38
2022-10-07T02:21:04.644Z,5.38
2022-10-07T02:22:04.626Z,5.35
2022-10-07T02:23:04.643Z,5.35
2022-10-07T02:24:04.612Z,5.38
2022-10-07T02:25:04.594Z,5.38
2022-10-07T02:26:04.582Z,5.37
2022-10-07T02:27:04.565Z,5.37
2022-10-07T02:28:04.616Z,5.37
2022-10-07T02:29:04.579Z,5.35
2022-10-07T02:30:04.525Z,5.32
2022-10-07T02:31:04.621Z,5.31
2022-10-07T02:32:04.505Z,5.28
2022-10-07T02:33:04.516Z,5.25
2022-10-07T02:34:04.484Z,5.23
2022-10-07T02:35:04.546Z,5.20
2022-10-07T02:36:04.465Z,5.16
2022-10-07T02:37:04.457Z,5.14
2022-10-07T02:38:04.448Z,5.14
2022-10-07T02:39:04.436Z,5.22
2022-10-07T02:40:07.114Z,5.28
2022-10-07T02:41:05.592Z,5.32
2022-10-07T02:42:04.397Z,5.34
2022-10-07T02:43:04.390Z,5.34
2022-10-07T02:44:04.376Z,5.31
2022-10-07T02:45:04.378Z,5.30
2022-10-07T02:46:04.421Z,5.28
2022-10-07T02:47:04.368Z,5.30
2022-10-07T02:48:04.328Z,5.30
2022-10-07T02:49:04.339Z,5.30
2022-10-07T02:50:04.297Z,5.27
2022-10-07T02:51:04.298Z,5.27
2022-10-07T02:52:04.299Z,5.27
2022-10-07T02:53:04.318Z,5.30
2022-10-07T02:54:04.280Z,5.28
2022-10-07T02:55:04.287Z,5.27
2022-10-07T02:56:04.237Z,5.25
2022-10-07T02:57:04.226Z,5.22
2022-10-07T02:58:04.279Z,5.22
2022-10-07T02:59:04.199Z,5.17
2022-10-07T03:00:08.613Z,5.17
2022-10-07T03:01:05.179Z,5.14
2022-10-07T03:02:04.216Z,5.13
2022-10-07T03:03:04.149Z,5.13
2022-10-07T03:04:04.258Z,5.14
2022-10-07T03:05:04.128Z,5.13
2022-10-07T03:06:04.127Z,5.10
2022-10-07T03:07:04.107Z,5.05
2022-10-07T03:08:04.103Z,5.05
2022-10-07T03:09:04.080Z,5.05
2022-10-07T03:10:04.108Z,5.04
2022-10-07T03:11:04.070Z,5.05
2022-10-07T03:12:04.050Z,5.09
2022-10-07T03:13:04.043Z,5.09
2022-10-07T03:14:04.029Z,5.07
2022-10-07T03:15:04.021Z,5.09
2022-10-07T03:16:04.107Z,5.09
2022-10-07T03:17:03.999Z,5.07
2022-10-07T03:18:04.004Z,5.09
2022-10-07T03:19:03.972Z,5.12
2022-10-07T03:20:03.950Z,5.13
2022-10-07T03:21:03.970Z,5.12
2022-10-07T03:22:03.934Z,5.10
2022-10-07T03:23:03.924Z,5.09
2022-10-07T03:24:03.911Z,5.09
2022-10-07T03:25:03.901Z,5.09
2022-10-07T03:26:03.892Z,5.10
2022-10-07T03:27:03.907Z,5.10
2022-10-07T03:28:03.911Z,5.09
2022-10-07T03:29:03.861Z,5.09
2022-10-07T03:30:03.851Z,5.10
2022-10-07T03:31:03.840Z,5.12
2022-10-07T03:32:03.817Z,5.09
2022-10-07T03:33:03.849Z,5.05
2022-10-07T03:34:03.800Z,5.02
2022-10-07T03:35:03.815Z,4.99
2022-10-07T03:36:03.773Z,4.98
2022-10-07T03:37:03.762Z,4.98
2022-10-07T03:38:03.795Z,4.95
2022-10-07T03:39:03.763Z,4.94
2022-10-07T03:40:03.738Z,4.94
2022-10-07T03:41:03.712Z,4.91
2022-10-07T03:42:03.706Z,4.95
2022-10-07T03:43:03.712Z,4.94
2022-10-07T03:44:03.723Z,4.91
2022-10-07T03:45:03.662Z,4.91
2022-10-07T03:46:03.713Z,4.88
2022-10-07T03:47:05.689Z,4.86
2022-10-07T03:48:04.651Z,4.84
2022-10-07T03:49:03.623Z,4.86
2022-10-07T03:50:03.648Z,4.89
2022-10-07T03:51:03.604Z,4.91
2022-10-07T03:52:03.603Z,4.89
2022-10-07T03:53:03.587Z,4.86
2022-10-07T03:54:03.583Z,4.79
2022-10-07T03:55:03.561Z,4.79
2022-10-07T03:56:03.573Z,4.76
2022-10-07T03:57:03.544Z,4.76
2022-10-07T03:58:03.513Z,4.73
2022-10-07T03:59:03.512Z,4.70
2022-10-07T04:00:03.494Z,4.70
2022-10-07T04:01:03.493Z,4.69
2022-10-07T04:02:03.696Z,4.69
2022-10-07T04:03:03.567Z,4.70
2022-10-07T04:04:03.484Z,4.70
2022-10-07T04:05:03.640Z,4.73
2022-10-07T04:06:03.489Z,4.75
2022-10-07T04:07:03.416Z,4.73
2022-10-07T04:08:03.423Z,4.72
2022-10-07T04:09:03.410Z,4.73
2022-10-07T04:10:03.368Z,4.75
2022-10-07T04:11:03.354Z,4.77
2022-10-07T04:12:03.347Z,4.77
2022-10-07T04:13:03.345Z,4.77
2022-10-07T04:14:03.353Z,4.76
2022-10-07T04:15:03.427Z,4.76
2022-10-07T04:16:03.330Z,4.73
2022-10-07T04:17:03.307Z,4.72
2022-10-07T04:18:03.285Z,4.72
2022-10-07T04:19:03.287Z,4.73
2022-10-07T04:20:03.297Z,4.73
2022-10-07T04:21:03.245Z,4.70
2022-10-07T04:22:08.268Z,4.67
2022-10-07T04:23:04.229Z,4.64
2022-10-07T04:24:03.199Z,4.61
2022-10-07T04:25:03.201Z,4.59
2022-10-07T04:26:03.207Z,4.62
2022-10-07T04:27:03.172Z,4.64
2022-10-07T04:28:03.431Z,4.65
2022-10-07T04:29:03.197Z,4.65
2022-10-07T04:30:03.146Z,4.62
2022-10-07T04:31:03.237Z,4.64
2022-10-07T04:32:03.152Z,4.65
2022-10-07T04:33:03.106Z,4.69
2022-10-07T04:34:03.087Z,4.67
2022-10-07T04:35:03.077Z,4.67
2022-10-07T04:36:03.097Z,4.61
2022-10-07T04:37:03.077Z,4.58
2022-10-07T04:38:03.036Z,4.54
2022-10-07T04:39:03.041Z,4.47
2022-10-07T04:40:03.047Z,4.46
2022-10-07T04:41:03.009Z,4.44
2022-10-07T04:42:03.018Z,4.43
2022-10-07T04:43:03.007Z,4.44
2022-10-07T04:44:02.967Z,4.44
2022-10-07T04:45:02.960Z,4.46
2022-10-07T04:46:02.938Z,4.47
2022-10-07T04:47:03.051Z,4.47
2022-10-07T04:48:02.918Z,4.51
2022-10-07T04:49:02.930Z,4.50
2022-10-07T04:50:02.922Z,4.44
2022-10-07T04:51:02.898Z,4.42
2022-10-07T04:52:02.901Z,4.39
2022-10-07T04:53:02.862Z,4.39
2022-10-07T04:54:02.847Z,4.37
2022-10-07T04:55:02.892Z,4.34
2022-10-07T04:56:02.830Z,4.33
2022-10-07T04:57:02.820Z,4.32
2022-10-07T04:58:02.829Z,4.29
2022-10-07T04:59:02.798Z,4.33
2022-10-07T05:00:02.790Z,4.33
2022-10-07T05:01:02.818Z,4.33
2022-10-07T05:02:02.848Z,4.32
2022-10-07T05:03:02.770Z,4.32
2022-10-07T05:04:02.800Z,4.29
2022-10-07T05:05:02.734Z,4.29
2022-10-07T05:06:05.622Z,4.29
2022-10-07T05:07:02.699Z,4.34
2022-10-07T05:08:02.728Z,4.34
2022-10-07T05:09:02.687Z,4.36
2022-10-07T05:10:02.662Z,4.36
2022-10-07T05:11:02.660Z,4.34
2022-10-07T05:12:02.652Z,4.39
2022-10-07T05:13:02.633Z,4.40
2022-10-07T05:14:02.610Z,4.42
2022-10-07T05:15:02.611Z,4.42
2022-10-07T05:16:02.636Z,4.43
2022-10-07T05:17:02.610Z,4.43
2022-10-07T05:18:02.611Z,4.46
2022-10-07T05:19:02.647Z,4.46
2022-10-07T05:20:02.590Z,4.47
2022-10-07T05:21:02.589Z,4.46
2022-10-07T05:22:02.581Z,4.46
2022-10-07T05:23:02.591Z,4.46
2022-10-07T05:24:02.876Z,4.46
2022-10-07T05:25:02.514Z,4.51
2022-10-07T05:26:02.530Z,4.50
2022-10-07T05:27:02.746Z,4.52
2022-10-07T05:28:02.524Z,4.51
2022-10-07T05:29:02.452Z,4.50
2022-10-07T05:30:03.129Z,4.46
2022-10-07T05:31:02.563Z,4.46
2022-10-07T05:32:05.081Z,4.42
2022-10-07T05:33:02.393Z,4.42
2022-10-07T05:34:02.381Z,4.42
2022-10-07T05:35:02.402Z,4.42
2022-10-07T05:36:02.356Z,4.44
2022-10-07T05:37:02.343Z,4.44
2022-10-07T05:38:02.341Z,4.47
2022-10-07T05:39:02.323Z,4.52
2022-10-07T05:40:02.302Z,4.61
2022-10-07T05:41:02.329Z,4.62
2022-10-07T05:42:02.292Z,4.62
2022-10-07T05:43:02.289Z,4.62
2022-10-07T05:44:02.264Z,4.62
2022-10-07T05:45:02.245Z,4.62
2022-10-07T05:46:02.361Z,4.64
2022-10-07T05:47:02.257Z,4.65
2022-10-07T05:48:02.228Z,4.67
2022-10-07T05:49:02.203Z,4.67
2022-10-07T05:50:02.234Z,4.67
2022-10-07T05:51:02.183Z,4.69
2022-10-07T05:52:02.200Z,4.70
2022-10-07T05:53:02.155Z,4.73
2022-10-07T05:54:02.153Z,4.75
2022-10-07T05:55:02.257Z,4.75
2022-10-07T05:56:02.145Z,4.76
2022-10-07T05:57:02.104Z,4.76
2022-10-07T05:58:02.126Z,4.75
2022-10-07T05:59:02.087Z,4.73
2022-10-07T06:00:02.091Z,4.73
2022-10-07T06:01:06.047Z,4.73
2022-10-07T06:02:03.161Z,4.72
2022-10-07T06:03:02.114Z,4.73
2022-10-07T06:04:02.053Z,4.75
2022-10-07T06:05:02.009Z,4.73
2022-10-07T06:06:02.004Z,4.77
2022-10-07T06:07:01.999Z,4.77
2022-10-07T06:08:01.976Z,4.77
2022-10-07T06:09:01.986Z,4.77
2022-10-07T06:10:01.966Z,4.77
2022-10-07T06:11:01.954Z,4.76
2022-10-07T06:12:01.935Z,4.80
2022-10-07T06:13:01.925Z,4.86
2022-10-07T06:14:01.910Z,4.89
2022-10-07T06:15:01.947Z,4.89
2022-10-07T06:16:01.886Z,4.88
2022-10-07T06:17:01.917Z,4.91
2022-10-07T06:18:01.856Z,4.91
2022-10-07T06:19:01.850Z,4.92
2022-10-07T06:20:01.848Z,4.94
2022-10-07T06:21:01.860Z,4.92
2022-10-07T06:22:01.839Z,4.95
2022-10-07T06:23:01.797Z,4.96
2022-10-07T06:24:01.787Z,4.96
2022-10-07T06:25:01.790Z,4.96
2022-10-07T06:26:01.788Z,4.99
2022-10-07T06:27:01.772Z,5.02
2022-10-07T06:28:01.793Z,5.07
2022-10-07T06:29:01.749Z,5.09
2022-10-07T06:30:01.729Z,5.10
2022-10-07T06:31:01.746Z,5.13
2022-10-07T06:32:01.799Z,5.14
2022-10-07T06:33:01.710Z,5.17
2022-10-07T06:34:01.668Z,5.20
2022-10-07T06:35:01.657Z,5.25
2022-10-07T06:36:04.433Z,5.28
2022-10-07T06:37:01.641Z,5.31
2022-10-07T06:38:01.647Z,5.34
2022-10-07T06:39:01.627Z,5.38
2022-10-07T06:40:01.619Z,5.41
2022-10-07T06:41:01.638Z,5.43
2022-10-07T06:42:01.896Z,5.48
2022-10-07T06:43:01.588Z,5.48
2022-10-07T06:44:01.571Z,5.48
2022-10-07T06:45:01.554Z,5.52
2022-10-07T06:46:01.631Z,5.49
2022-10-07T06:47:01.528Z,5.52
2022-10-07T06:48:01.539Z,5.50
2022-10-07T06:49:01.553Z,5.52
2022-10-07T06:50:01.492Z,5.50
2022-10-07T06:51:01.478Z,5.57
2022-10-07T06:52:01.468Z,5.67
2022-10-07T06:53:01.458Z,5.71
2022-10-07T06:54:01.450Z,5.74
2022-10-07T06:55:01.468Z,5.77
2022-10-07T06:56:01.419Z,5.82
2022-10-07T06:57:01.411Z,5.83
2022-10-07T06:58:04.246Z,5.83
2022-10-07T06:59:02.393Z,5.75
2022-10-07T07:00:01.407Z,5.74
2022-10-07T07:01:01.446Z,5.77
2022-10-07T07:02:01.391Z,5.77
2022-10-07T07:03:01.334Z,5.81
2022-10-07T07:04:01.339Z,5.85
2022-10-07T07:06:01.332Z,6.03
2022-10-07T07:07:01.314Z,6.10
2022-10-07T07:08:01.296Z,6.11
2022-10-07T07:09:01.292Z,6.21
2022-10-07T07:10:01.284Z,6.28
2022-10-07T07:11:01.251Z,6.32
2022-10-07T07:12:01.271Z,6.33
2022-10-07T07:14:01.212Z,6.47
2022-10-07T07:15:01.223Z,6.47
2022-10-07T07:16:01.223Z,6.47
2022-10-07T07:17:01.251Z,6.51
2022-10-07T07:18:01.190Z,6.56
2022-10-07T07:19:01.152Z,6.59
2022-10-07T07:20:01.155Z,6.63
2022-10-07T07:21:01.143Z,6.66
2022-10-07T07:22:01.124Z,6.72
2022-10-07T07:23:01.142Z,6.73
2022-10-07T07:24:01.105Z,6.79
2022-10-07T07:25:01.152Z,6.86
2022-10-07T07:26:01.073Z,6.94
2022-10-07T07:27:01.074Z,7.02
2022-10-07T07:28:01.111Z,7.08
2022-10-07T07:29:01.081Z,7.08
2022-10-07T07:30:01.033Z,7.13
2022-10-07T07:31:01.097Z,7.19
2022-10-07T07:32:01.078Z,7.19
2022-10-07T07:33:01.007Z,7.20
2022-10-07T07:34:00.994Z,7.26
2022-10-07T07:35:01.007Z,7.29
2022-10-07T07:36:01.007Z,7.31
2022-10-07T07:37:00.957Z,7.38
2022-10-07T07:38:00.945Z,7.41
2022-10-07T07:39:00.924Z,7.44
2022-10-07T07:40:00.945Z,7.52
2022-10-07T07:41:00.904Z,7.56
2022-10-07T07:42:00.885Z,7.60
2022-10-07T07:43:00.880Z,7.66
2022-10-07T07:44:00.865Z,7.71
2022-10-07T07:45:01.960Z,7.77
2022-10-07T07:46:00.914Z,7.77
2022-10-07T07:47:00.927Z,7.82
2022-10-07T07:48:00.817Z,7.89
2022-10-07T07:49:00.806Z,7.85
2022-10-07T07:50:00.804Z,7.93
2022-10-07T07:51:00.806Z,7.94
2022-10-07T07:52:00.797Z,8.03
2022-10-07T07:53:00.766Z,8.07
2022-10-07T07:54:00.757Z,8.10
2022-10-07T07:55:00.745Z,8.11
2022-10-07T07:56:00.737Z,8.17
2022-10-07T07:57:00.728Z,8.21
2022-10-07T07:58:00.971Z,8.28
2022-10-07T07:59:00.727Z,8.32
2022-10-07T08:00:00.697Z,8.39
2022-10-07T08:01:00.691Z,8.50
2022-10-07T08:02:00.664Z,8.58
2022-10-07T08:03:00.640Z,8.65
2022-10-07T08:04:00.667Z,8.73
2022-10-07T08:05:00.636Z,8.73
2022-10-07T08:06:00.617Z,8.87
2022-10-07T08:07:00.607Z,8.93
2022-10-07T08:08:00.589Z,8.96
2022-10-07T08:09:00.650Z,9.02
2022-10-07T08:10:00.598Z,8.96
2022-10-07T08:11:00.558Z,9.06
2022-10-07T08:12:00.585Z,9.16
2022-10-07T08:13:00.554Z,9.13
2022-10-07T08:14:00.523Z,9.12
2022-10-07T08:15:00.544Z,9.06
2022-10-07T08:16:00.509Z,9.15
2022-10-07T08:17:00.500Z,9.24
2022-10-07T08:18:00.489Z,9.35
2022-10-07T08:19:00.499Z,9.45
2022-10-07T08:20:00.463Z,9.57
2022-10-07T08:21:00.469Z,9.64
2022-10-07T08:22:00.480Z,9.67
2022-10-07T08:23:00.441Z,9.70
2022-10-07T08:24:00.410Z,9.79
2022-10-07T08:25:00.407Z,9.88
2022-10-07T08:26:00.402Z,9.93
2022-10-07T08:27:00.401Z,9.91
2022-10-07T08:28:00.473Z,9.96
2022-10-07T08:29:00.366Z,10.04
2022-10-07T08:30:00.344Z,10.07
2022-10-07T08:31:00.341Z,10.09
2022-10-07T08:32:00.321Z,10.07
2022-10-07T08:33:01.540Z,10.14
2022-10-07T08:34:00.339Z,10.19
2022-10-07T08:35:00.281Z,10.22
2022-10-07T08:36:00.312Z,10.30
2022-10-07T08:37:00.252Z,10.33
2022-10-07T08:38:00.274Z,10.22
2022-10-07T08:39:00.231Z,10.18
2022-10-07T08:40:00.240Z,10.21
2022-10-07T08:41:00.202Z,10.24
2022-10-07T08:42:00.194Z,10.32
2022-10-07T08:43:00.203Z,10.34
2022-10-07T08:44:01.150Z,10.42
2022-10-07T08:45:00.165Z,10.40
2022-10-07T08:46:00.195Z,10.53
2022-10-07T08:47:00.134Z,10.66
2022-10-07T08:48:00.153Z,10.73
2022-10-07T08:49:00.127Z,10.76
2022-10-07T08:50:00.132Z,10.74
2022-10-07T08:51:00.086Z,10.76
2022-10-07T08:52:00.096Z,10.65
2022-10-07T08:53:00.113Z,10.63
2022-10-07T08:54:00.084Z,10.63
2022-10-07T08:55:00.174Z,10.77
2022-10-07T08:56:00.129Z,10.92
2022-10-07T08:57:00.016Z,10.98
2022-10-07T08:58:00.014Z,11.17
2022-10-07T08:59:00.016Z,11.24
2022-10-07T08:59:59.993Z,11.29
2022-10-07T09:01:00.006Z,11.32
2022-10-07T09:01:59.991Z,11.21
2022-10-07T09:03:00.021Z,11.09
2022-10-07T09:03:59.948Z,11.07
2022-10-07T09:05:00.010Z,11.10
2022-10-07T09:05:59.919Z,11.16
2022-10-07T09:06:59.945Z,11.25
2022-10-07T09:07:59.907Z,11.35
2022-10-07T09:08:59.917Z,11.46
2022-10-07T09:09:59.877Z,11.59
2022-10-07T09:11:02.442Z,11.64
2022-10-07T09:11:59.879Z,11.71
2022-10-07T09:12:59.876Z,11.82
2022-10-07T09:13:59.859Z,11.96
2022-10-07T09:14:59.838Z,11.96
2022-10-07T09:15:59.861Z,12.06
2022-10-07T09:16:59.871Z,12.20
2022-10-07T09:17:59.868Z,12.23
2022-10-07T09:18:59.779Z,12.29
2022-10-07T09:19:59.806Z,12.34
2022-10-07T09:20:59.824Z,12.48
2022-10-07T09:21:59.769Z,12.57
2022-10-07T09:22:59.750Z,12.48
2022-10-07T09:23:59.819Z,12.38
2022-10-07T09:24:59.790Z,12.37
2022-10-07T09:25:59.731Z,12.46
2022-10-07T09:26:59.678Z,12.54
2022-10-07T09:27:59.695Z,12.64
2022-10-07T09:28:59.681Z,12.81
2022-10-07T09:29:59.641Z,12.87
2022-10-07T09:30:59.668Z,12.79
2022-10-07T09:31:59.612Z,12.67
2022-10-07T09:32:59.603Z,12.77
2022-10-07T09:33:59.594Z,12.82
2022-10-07T09:34:59.603Z,12.81
2022-10-07T09:35:59.573Z,12.84
2022-10-07T09:36:59.561Z,12.92
2022-10-07T09:37:59.542Z,13.06
2022-10-07T09:38:59.567Z,13.14
2022-10-07T09:39:59.583Z,13.33
2022-10-07T09:40:59.547Z,13.56
2022-10-07T09:41:59.495Z,13.69
2022-10-07T09:42:59.485Z,13.74
2022-10-07T09:43:59.483Z,13.76
2022-10-07T09:44:59.486Z,13.80
2022-10-07T09:45:59.561Z,13.77
2022-10-07T09:46:59.447Z,13.80
2022-10-07T09:47:59.437Z,13.89
2022-10-07T09:48:59.415Z,14.02
2022-10-07T09:49:59.415Z,14.07
2022-10-07T09:50:59.432Z,14.09
2022-10-07T09:51:59.417Z,14.06
2022-10-07T09:52:59.365Z,14.10
2022-10-07T09:53:59.366Z,14.21
2022-10-07T09:54:59.358Z,14.24
2022-10-07T09:55:59.335Z,14.19
2022-10-07T09:56:59.326Z,14.32
2022-10-07T09:57:59.718Z,14.37
2022-10-07T09:58:59.330Z,14.46
2022-10-07T09:59:59.292Z,14.35
2022-10-07T10:01:00.311Z,14.44
2022-10-07T10:01:59.351Z,14.53
2022-10-07T10:03:04.756Z,14.50
2022-10-07T10:04:00.270Z,14.60
2022-10-07T10:04:59.232Z,14.75
2022-10-07T10:05:59.219Z,14.81
2022-10-07T10:06:59.207Z,14.93
2022-10-07T10:07:59.204Z,15.03
2022-10-07T10:08:59.191Z,15.06
2022-10-07T10:09:59.254Z,15.09
2022-10-07T10:10:59.167Z,15.09
2022-10-07T10:12:59.153Z,15.21
2022-10-07T10:13:59.121Z,15.30
2022-10-07T10:14:59.150Z,15.38
2022-10-07T10:15:59.177Z,15.27
2022-10-07T10:16:59.096Z,15.31
2022-10-07T10:17:59.103Z,15.36
2022-10-07T10:18:59.070Z,15.46
2022-10-07T10:19:59.052Z,15.60
2022-10-07T10:20:59.062Z,15.70
2022-10-07T10:21:59.031Z,15.68
2022-10-07T10:22:59.041Z,15.79
2022-10-07T10:23:59.015Z,15.79
2022-10-07T10:24:59.004Z,15.72
2022-10-07T10:25:59.013Z,15.68
2022-10-07T10:26:58.972Z,15.79
2022-10-07T10:27:59.023Z,15.75
2022-10-07T10:28:58.965Z,15.51
2022-10-07T10:29:58.943Z,15.56
2022-10-07T10:30:58.973Z,15.64
2022-10-07T10:32:00.147Z,15.74
2022-10-07T10:32:58.914Z,15.85
2022-10-07T10:33:58.946Z,15.96
2022-10-07T10:34:58.888Z,16.00
2022-10-07T10:35:58.868Z,16.03
2022-10-07T10:36:58.885Z,16.00
2022-10-07T10:37:58.887Z,15.99
2022-10-07T10:38:58.851Z,15.97
2022-10-07T10:39:58.833Z,16.06
2022-10-07T10:40:58.847Z,16.22
2022-10-07T10:41:58.950Z,16.33
2022-10-07T10:42:58.806Z,16.44
2022-10-07T10:43:58.768Z,16.56
2022-10-07T10:44:58.766Z,16.52
2022-10-07T10:45:58.757Z,16.35
2022-10-07T10:46:58.849Z,16.42
2022-10-07T10:47:58.807Z,16.49
2022-10-07T10:48:58.731Z,16.52
2022-10-07T10:49:58.699Z,16.50
2022-10-07T10:50:58.737Z,16.53
2022-10-07T10:51:58.688Z,16.55
2022-10-07T10:52:58.731Z,16.55
2022-10-07T10:53:58.689Z,16.45
2022-10-07T10:54:58.659Z,16.44
2022-10-07T10:55:58.646Z,16.44
2022-10-07T10:56:58.637Z,16.44
2022-10-07T10:58:00.558Z,16.42
2022-10-07T10:58:58.633Z,16.44
2022-10-07T10:59:58.667Z,16.49
2022-10-07T11:00:59.796Z,16.52
2022-10-07T11:01:58.681Z,16.58
2022-10-07T11:02:58.611Z,16.62
2022-10-07T11:03:58.593Z,16.67
2022-10-07T11:04:58.583Z,16.68
2022-10-07T11:05:58.592Z,16.74
2022-10-07T11:06:58.562Z,16.68
2022-10-07T11:08:01.689Z,16.45
2022-10-07T11:08:58.573Z,16.44
2022-10-07T11:09:58.539Z,16.50
2022-10-07T11:10:58.503Z,16.62
2022-10-07T11:11:58.504Z,16.73
2022-10-07T11:12:58.467Z,16.83
2022-10-07T11:13:58.531Z,16.89
2022-10-07T11:14:58.428Z,16.95
2022-10-07T11:15:58.468Z,17.03
2022-10-07T11:16:58.572Z,17.06
2022-10-07T11:17:58.406Z,17.00
2022-10-07T11:18:58.378Z,17.04
2022-10-07T11:19:58.421Z,17.07
2022-10-07T11:20:58.356Z,17.10
2022-10-07T11:21:58.346Z,17.15
2022-10-07T11:22:58.356Z,17.18
2022-10-07T11:23:58.315Z,17.18
2022-10-07T11:24:58.316Z,17.00
2022-10-07T11:25:58.298Z,17.00
2022-10-07T11:26:58.283Z,17.07
2022-10-07T11:27:58.345Z,17.10
2022-10-07T11:28:58.277Z,17.15
2022-10-07T11:29:58.240Z,17.25
2022-10-07T11:30:58.263Z,17.30
2022-10-07T11:31:58.248Z,17.38
2022-10-07T11:32:58.208Z,17.38
2022-10-07T11:33:58.199Z,17.44
2022-10-07T11:34:58.210Z,17.43
2022-10-07T11:35:58.179Z,17.41
2022-10-07T11:36:58.162Z,17.47
2022-10-07T11:37:58.159Z,17.46
2022-10-07T11:38:58.141Z,17.46
2022-10-07T11:39:58.188Z,17.55
2022-10-07T11:40:58.112Z,17.59
2022-10-07T11:41:58.152Z,17.48
2022-10-07T11:42:58.093Z,17.44
2022-10-07T11:43:58.085Z,17.43
2022-10-07T11:44:58.077Z,17.41
2022-10-07T11:45:58.082Z,17.32
2022-10-07T11:46:58.106Z,17.32
2022-10-07T11:47:58.040Z,17.35
2022-10-07T11:48:58.031Z,17.36
2022-10-07T11:49:58.013Z,17.32
2022-10-07T11:50:58.002Z,17.26
2022-10-07T11:51:58.053Z,17.28
2022-10-07T11:52:57.988Z,17.35
2022-10-07T11:53:57.964Z,17.38
2022-10-07T11:54:57.976Z,17.48
2022-10-07T11:55:57.967Z,17.53
2022-10-07T11:56:57.933Z,17.59
2022-10-07T11:57:57.943Z,17.69
2022-10-07T11:58:57.916Z,17.73
2022-10-07T11:59:57.899Z,17.71
2022-10-07T12:00:57.885Z,17.74
2022-10-07T12:01:57.916Z,17.66
2022-10-07T12:02:57.974Z,17.57
2022-10-07T12:03:57.880Z,17.53
2022-10-07T12:04:57.899Z,17.63
2022-10-07T12:05:57.946Z,17.67
2022-10-07T12:06:57.932Z,17.71
2022-10-07T12:07:57.917Z,17.73
2022-10-07T12:08:57.837Z,17.79
2022-10-07T12:09:57.917Z,17.85
2022-10-07T12:10:57.817Z,17.78
2022-10-07T12:11:58.143Z,17.70
2022-10-07T12:12:57.812Z,17.66
2022-10-07T12:13:57.809Z,17.71
2022-10-07T12:14:57.771Z,17.82
2022-10-07T12:15:57.807Z,17.88
2022-10-07T12:16:57.723Z,17.84
2022-10-07T12:17:57.723Z,17.87
2022-10-07T12:18:57.701Z,17.91
2022-10-07T12:19:57.682Z,17.91
2022-10-07T12:20:57.850Z,17.88
2022-10-07T12:21:57.690Z,17.87
2022-10-07T12:22:57.709Z,17.87
2022-10-07T12:23:57.644Z,17.91
2022-10-07T12:24:57.641Z,17.92
2022-10-07T12:25:57.634Z,17.94
2022-10-07T12:26:57.612Z,17.91
2022-10-07T12:27:57.615Z,17.95
2022-10-07T12:28:57.584Z,17.94
2022-10-07T12:29:57.634Z,17.87
2022-10-07T12:30:57.584Z,17.85
2022-10-07T12:31:57.624Z,17.87
2022-10-07T12:32:57.875Z,17.85
2022-10-07T12:33:57.543Z,17.71
2022-10-07T12:34:57.543Z,17.64
2022-10-07T12:35:57.484Z,17.54
2022-10-07T12:36:57.483Z,17.53
2022-10-07T12:37:57.454Z,17.57
2022-10-07T12:38:57.469Z,17.67
2022-10-07T12:39:57.426Z,17.74
2022-10-07T12:40:57.415Z,17.85
2022-10-07T12:41:57.405Z,17.94
2022-10-07T12:42:57.428Z,18.07
2022-10-07T12:43:57.406Z,18.06
2022-10-07T12:44:57.384Z,18.10
2022-10-07T12:45:57.438Z,18.19
2022-10-07T12:46:57.347Z,18.22
2022-10-07T12:47:57.329Z,18.18
2022-10-07T12:48:57.329Z,18.17
2022-10-07T12:49:57.339Z,18.13
2022-10-07T12:50:57.318Z,18.15
2022-10-07T12:51:57.293Z,18.18
2022-10-07T12:52:57.303Z,18.15
2022-10-07T12:53:57.267Z,18.17
2022-10-07T12:54:57.248Z,18.17
2022-10-07T12:55:57.357Z,18.19
2022-10-07T12:56:57.240Z,18.19
2022-10-07T12:57:57.231Z,18.18
2022-10-07T12:58:57.213Z,18.10
2022-10-07T12:59:57.189Z,18.06
2022-10-07T13:00:57.310Z,18.07
2022-10-07T13:01:57.352Z,18.09
2022-10-07T13:02:57.159Z,18.00
2022-10-07T13:03:57.147Z,18.00
2022-10-07T13:04:57.141Z,18.03
2022-10-07T13:05:57.121Z,17.99
2022-10-07T13:06:57.148Z,17.85
2022-10-07T13:07:57.101Z,17.84
2022-10-07T13:08:57.111Z,17.89
2022-10-07T13:09:57.084Z,17.94
2022-10-07T13:10:57.073Z,17.91
2022-10-07T13:11:57.062Z,17.85